Time;durP1;ratioP1;P1;durP2;ratioP2;P2;SDS_P1;SDS_P2;PMS_P1;PMS_P2;Temp;Humidity;BMP_temperature;BMP_pressure;BME280_temperature;BME280_humidity;BME280_pressure;Samples;Min_cycle;Max_cycle;Signal;HPM_P1;HPM_P2
2023/10/29 00:00:16;;;;;;;7.40;2.87;;;;;;;16.24;73.18;94757.44;5032712;28;20485;-79
2023/10/29 00:02:44;;;;;;;14.10;3.20;;;;;;;16.15;73.13;94744.38;5032353;28;20447;-80
2023/10/29 00:05:10;;;;;;;4.50;3.00;;;;;;;16.00;73.57;94750.34;5032858;28;20447;-79
2023/10/29 00:07:37;;;;;;;4.93;2.83;;;;;;;16.05;73.98;94755.97;5032577;28;20445;-80
2023/10/29 00:10:06;;;;;;;3.77;2.90;;;;;;;16.10;74.22;94761.56;5032388;28;20584;-80
2023/10/29 00:12:35;;;;;;;5.60;3.23;;;;;;;16.10;73.80;94758.09;5014144;28;20950;-79
2023/10/29 00:15:02;;;;;;;4.37;2.67;;;;;;;16.07;74.92;94764.56;5032583;28;20492;-80
2023/10/29 00:17:29;;;;;;;9.10;3.27;;;;;;;16.02;74.96;94763.41;5032827;28;20510;-80
2023/10/29 00:19:56;;;;;;;7.00;2.93;;;;;;;16.03;75.70;94765.88;5032501;28;20440;-80
2023/10/29 00:22:22;;;;;;;5.47;2.67;;;;;;;16.04;75.68;94764.91;5032422;28;20441;-80
2023/10/29 00:24:49;;;;;;;7.27;3.00;;;;;;;16.03;75.51;94776.47;5032229;28;20698;-79
2023/10/29 00:27:16;;;;;;;8.20;3.50;;;;;;;16.09;74.35;94764.38;5032588;28;20863;-80
2023/10/29 00:29:45;;;;;;;4.00;2.93;;;;;;;16.10;74.18;94760.75;5032431;28;20491;-80
2023/10/29 00:32:12;;;;;;;5.73;3.83;;;;;;;16.11;74.47;94770.34;5035826;28;20440;-80
2023/10/29 00:34:39;;;;;;;4.43;2.83;;;;;;;16.12;74.35;94764.06;5035776;28;20971;-80
2023/10/29 00:37:06;;;;;;;6.70;3.03;;;;;;;16.10;74.25;94772.16;5036291;28;20435;-79
2023/10/29 00:39:33;;;;;;;6.63;4.50;;;;;;;16.03;73.31;94768.53;5035938;28;20440;-80
2023/10/29 00:42:00;;;;;;;5.33;2.93;;;;;;;16.03;73.90;94768.53;5035558;28;20441;-80
2023/10/29 00:44:26;;;;;;;8.80;3.70;;;;;;;16.01;73.73;94781.13;5035963;28;20444;-79
2023/10/29 00:46:55;;;;;;;3.33;3.03;;;;;;;15.94;75.62;94774.00;5035557;28;20443;-80
2023/10/29 00:49:22;;;;;;;6.70;3.10;;;;;;;15.90;74.61;94781.44;5035517;28;20559;-80
2023/10/29 00:51:50;;;;;;;7.37;2.80;;;;;;;15.83;73.44;94790.19;5035986;28;20444;-80
2023/10/29 00:54:17;;;;;;;6.60;2.90;;;;;;;15.86;74.42;94789.84;5035791;28;20448;-81
2023/10/29 00:56:44;;;;;;;5.90;2.83;;;;;;;15.83;74.43;94795.47;5035523;28;20452;-81
2023/10/29 00:59:14;;;;;;;9.97;3.93;;;;;;;15.84;74.98;94789.19;5035569;28;20454;-80
2023/10/29 01:01:41;;;;;;;4.63;2.60;;;;;;;15.78;76.32;94788.03;5035710;28;20444;-81
2023/10/29 01:04:09;;;;;;;7.63;3.27;;;;;;;15.77;75.76;94791.69;5035407;28;20812;-79
2023/10/29 01:06:38;;;;;;;5.30;3.20;;;;;;;15.79;74.68;94792.34;5035471;28;20438;-80
2023/10/29 01:09:06;;;;;;;2.70;2.50;;;;;;;15.81;75.23;94787.72;5000077;28;21098;-80
2023/10/29 01:11:33;;;;;;;2.93;2.60;;;;;;;15.79;75.52;94793.16;5035000;28;20447;-79
2023/10/29 01:14:01;;;;;;;4.70;2.73;;;;;;;15.77;75.72;94791.69;5016668;28;20983;-80
2023/10/29 01:16:29;;;;;;;5.00;2.60;;;;;;;15.77;75.78;94792.50;5034909;28;20447;-79
2023/10/29 01:18:56;;;;;;;7.37;3.10;;;;;;;15.76;75.92;94792.69;5034986;28;20502;-79
2023/10/29 01:21:27;;;;;;;5.03;3.07;;;;;;;15.79;73.80;94800.28;5034839;28;20484;-79
2023/10/29 01:23:53;;;;;;;4.40;2.77;;;;;;;15.72;73.25;94799.28;5034668;28;20456;-79
2023/10/29 01:26:21;;;;;;;5.80;3.23;;;;;;;15.74;75.22;94790.19;5034643;28;20787;-79
2023/10/29 01:28:47;;;;;;;4.60;2.90;;;;;;;15.76;75.69;94795.31;5034518;28;20479;-78
2023/10/29 01:31:13;;;;;;;5.30;3.17;;;;;;;15.71;74.04;94792.34;5035099;28;20513;-77
2023/10/29 01:33:40;;;;;;;4.20;2.67;;;;;;;15.70;73.92;94785.41;5034792;28;20208;-78
2023/10/29 01:36:08;;;;;;;3.63;2.77;;;;;;;15.67;74.20;94780.44;5015886;28;20840;-79
2023/10/29 01:38:36;;;;;;;7.80;3.00;;;;;;;15.65;74.40;94793.84;5034638;28;20823;-80
2023/10/29 01:41:03;;;;;;;3.20;2.80;;;;;;;15.61;75.28;94789.88;5034102;28;20448;-78
2023/10/29 01:43:30;;;;;;;6.87;3.53;;;;;;;15.55;75.96;94797.56;5034026;28;20444;-79
2023/10/29 01:45:57;;;;;;;3.83;2.70;;;;;;;15.49;75.99;94796.41;5034590;28;20451;-79
2023/10/29 01:48:24;;;;;;;3.60;2.70;;;;;;;15.45;75.94;94798.53;4999635;28;20486;-80
2023/10/29 01:50:51;;;;;;;4.33;3.43;;;;;;;15.48;74.58;94803.50;5034104;28;20499;-78
2023/10/29 01:53:18;;;;;;;5.37;3.23;;;;;;;15.47;75.79;94795.75;5034307;28;20887;-79
2023/10/29 01:55:46;;;;;;;4.40;3.30;;;;;;;15.23;74.93;94806.25;5034269;28;20442;-79
2023/10/29 01:58:13;;;;;;;4.83;3.37;;;;;;;15.10;75.19;94812.81;4999629;28;20927;-79
2023/10/29 02:00:40;;;;;;;4.30;3.33;;;;;;;14.72;76.22;94808.81;5015549;28;20459;-79
2023/10/29 02:03:07;;;;;;;3.97;3.40;;;;;;;14.72;77.94;94808.81;5034138;28;20485;-80
2023/10/29 02:05:33;;;;;;;6.00;3.40;;;;;;;14.78;77.54;94813.50;5034135;28;20918;-79
2023/10/29 02:08:00;;;;;;;5.77;3.23;;;;;;;14.81;78.07;94810.56;5033747;28;20905;-79
2023/10/29 02:10:27;;;;;;;8.70;3.10;;;;;;;14.90;77.84;94813.22;5033717;28;20992;-78
2023/10/29 02:12:55;;;;;;;6.73;3.60;;;;;;;14.94;77.75;94818.03;5033903;28;20812;-79
2023/10/29 02:15:22;;;;;;;7.37;3.10;;;;;;;14.94;76.63;94815.38;5034017;28;20913;-79
2023/10/29 02:17:49;;;;;;;4.00;3.23;;;;;;;14.96;79.03;94813.41;5033696;28;20441;-80
2023/10/29 02:20:17;;;;;;;7.33;3.47;;;;;;;14.91;77.26;94820.16;5034067;28;20450;-79
2023/10/29 02:22:45;;;;;;;5.33;3.50;;;;;;;14.88;76.68;94814.22;5015277;28;20446;-78
2023/10/29 02:25:12;;;;;;;4.33;3.30;;;;;;;14.78;77.39;94807.41;5033943;28;20949;-80
2023/10/29 02:27:38;;;;;;;6.00;3.00;;;;;;;14.78;76.74;94818.78;5033817;28;20478;-80
2023/10/29 02:30:06;;;;;;;6.60;3.40;;;;;;;14.73;77.52;94814.94;5033871;28;20509;-80
2023/10/29 02:32:33;;;;;;;5.70;3.77;;;;;;;14.55;77.88;94825.59;5014977;28;20450;-80
2023/10/29 02:35:00;;;;;;;4.90;2.80;;;;;;;14.58;78.08;94830.56;5033527;28;21174;-80
2023/10/29 02:37:27;;;;;;;8.30;3.40;;;;;;;14.55;78.46;94815.84;5033707;28;20442;-80
2023/10/29 02:39:55;;;;;;;8.30;3.80;;;;;;;14.64;78.08;94824.63;5033345;28;20449;-79
2023/10/29 02:42:22;;;;;;;7.97;3.73;;;;;;;14.53;78.21;94835.47;5033595;28;20442;-79
2023/10/29 02:44:48;;;;;;;3.80;3.40;;;;;;;14.56;77.85;94830.72;5033444;28;20439;-79
2023/10/29 02:47:15;;;;;;;4.00;3.27;;;;;;;14.07;78.58;94834.78;5033321;28;20448;-79
2023/10/29 02:49:42;;;;;;;4.83;3.30;;;;;;;14.02;79.23;94844.97;5033105;28;20495;-79
2023/10/29 02:52:09;;;;;;;6.33;3.60;;;;;;;14.09;79.53;94842.53;5033496;28;20458;-80
2023/10/29 02:54:36;;;;;;;5.90;3.90;;;;;;;13.80;79.19;94837.50;5033002;28;20945;-78
2023/10/29 02:57:05;;;;;;;7.57;3.67;;;;;;;13.60;81.03;94842.94;5033105;28;20939;-79
2023/10/29 02:59:31;;;;;;;5.23;3.20;;;;;;;13.67;81.70;94840.53;5033304;28;20446;-80
2023/10/29 03:01:58;;;;;;;3.90;3.10;;;;;;;13.74;81.82;94828.38;5033023;28;20453;-80
2023/10/29 03:04:25;;;;;;;7.43;3.20;;;;;;;13.78;81.67;94839.47;5033323;28;20449;-80
2023/10/29 03:06:52;;;;;;;7.63;3.80;;;;;;;13.77;81.82;94830.72;5032915;28;20938;-80
2023/10/29 03:09:19;;;;;;;7.67;3.50;;;;;;;13.81;81.73;94837.34;5032998;28;20480;-80
2023/10/29 03:11:46;;;;;;;6.63;4.47;;;;;;;13.85;81.95;94841.34;5032940;28;20948;-80
2023/10/29 03:14:14;;;;;;;5.00;3.97;;;;;;;13.79;82.65;94844.59;5033087;28;20856;-80
2023/10/29 03:16:40;;;;;;;7.60;3.93;;;;;;;13.81;82.09;94842.63;5032993;28;20452;-79
2023/10/29 03:19:07;;;;;;;4.40;3.80;;;;;;;13.84;81.52;94852.03;5033146;28;20448;-78
2023/10/29 03:21:34;;;;;;;7.60;3.47;;;;;;;13.89;81.15;94850.63;5033090;28;20449;-77
2023/10/29 03:24:01;;;;;;;6.37;3.60;;;;;;;13.96;80.52;94856.13;5032814;28;20833;-78
2023/10/29 03:26:28;;;;;;;8.53;3.47;;;;;;;14.01;80.47;94856.50;5032917;28;20446;-79
2023/10/29 03:28:55;;;;;;;7.63;4.00;;;;;;;14.08;80.71;94854.91;5033067;28;20480;-79
2023/10/29 03:31:23;;;;;;;5.40;3.57;;;;;;;14.14;81.82;94864.84;5032715;28;20521;-79
2023/10/29 03:33:50;;;;;;;6.60;3.40;;;;;;;14.12;81.63;94869.44;5032772;28;20800;-80
2023/10/29 03:36:17;;;;;;;13.07;4.40;;;;;;;14.07;79.81;94884.91;5033125;28;20446;-79
2023/10/29 03:38:44;;;;;;;4.33;3.30;;;;;;;14.05;79.41;94875.47;5033046;28;20882;-79
2023/10/29 03:41:20;;;;;;;6.67;3.43;;;;;;;14.04;79.78;94881.75;5032925;28;20456;-80
2023/10/29 03:43:47;;;;;;;5.43;3.30;;;;;;;14.02;79.23;94881.91;5032447;28;20503;-79
2023/10/29 03:46:13;;;;;;;4.27;3.80;;;;;;;13.98;79.28;94879.72;5032100;28;20443;-78
2023/10/29 03:48:44;;;;;;;9.17;3.83;;;;;;;13.95;78.94;94888.75;5011731;28;20466;-80
2023/10/29 03:51:11;;;;;;;6.17;4.10;;;;;;;13.81;79.81;94887.47;5032614;28;20497;-79
2023/10/29 03:53:38;;;;;;;6.50;3.47;;;;;;;13.67;80.02;94876.59;5032465;28;20451;-80
2023/10/29 03:56:06;;;;;;;4.53;4.13;;;;;;;13.66;82.09;94880.22;5032524;28;20445;-79
2023/10/29 03:58:32;;;;;;;4.33;3.63;;;;;;;13.59;81.10;94875.56;5014376;28;20440;-80
2023/10/29 04:01:01;;;;;;;6.50;4.17;;;;;;;13.44;79.83;94877.03;5032817;28;20453;-79
2023/10/29 04:03:28;;;;;;;10.30;4.43;;;;;;;13.30;80.65;94867.00;5032792;28;20450;-80
2023/10/29 04:05:56;;;;;;;4.57;3.67;;;;;;;13.31;81.69;94877.38;5034428;28;20451;-79
2023/10/29 04:08:23;;;;;;;6.57;3.93;;;;;;;13.37;82.48;94877.75;5036264;28;20434;-80
2023/10/29 04:10:50;;;;;;;7.20;3.60;;;;;;;13.40;82.13;94886.22;5036235;28;20484;-80
2023/10/29 04:13:16;;;;;;;5.10;4.00;;;;;;;13.50;84.75;94879.06;5036193;28;20442;-80
2023/10/29 04:15:43;;;;;;;6.60;4.00;;;;;;;13.56;85.38;94881.09;5036349;28;20445;-79
2023/10/29 04:18:10;;;;;;;5.40;3.03;;;;;;;13.59;85.10;94886.09;5036384;28;20441;-80
2023/10/29 04:20:37;;;;;;;7.73;4.00;;;;;;;13.66;86.20;94886.34;5036531;28;20432;-80
2023/10/29 04:23:05;;;;;;;5.80;4.03;;;;;;;13.78;85.53;94892.22;5036069;28;20460;-80
2023/10/29 04:25:32;;;;;;;5.63;4.27;;;;;;;13.89;87.26;94886.72;5035867;28;20450;-80
2023/10/29 04:27:58;;;;;;;6.80;3.27;;;;;;;13.94;84.94;94879.19;5036017;28;20481;-79
2023/10/29 04:30:25;;;;;;;8.90;4.00;;;;;;;14.00;85.04;94873.31;5035801;28;21008;-80
2023/10/29 04:32:52;;;;;;;6.17;3.60;;;;;;;14.05;85.60;94878.94;5035971;28;20461;-80
2023/10/29 04:35:19;;;;;;;6.13;3.43;;;;;;;14.10;85.70;94879.31;5036378;28;20501;-80
2023/10/29 04:37:46;;;;;;;7.90;4.30;;;;;;;13.83;82.30;94882.03;5035823;28;20443;-79
2023/10/29 04:40:14;;;;;;;7.67;4.20;;;;;;;13.57;82.58;94885.38;5035841;28;20805;-81
2023/10/29 04:42:41;;;;;;;5.43;4.20;;;;;;;13.45;82.22;94883.94;5017544;28;20458;-80
2023/10/29 04:45:10;;;;;;;9.53;4.37;;;;;;;13.19;81.53;94885.63;5035825;28;20449;-79
2023/10/29 04:47:36;;;;;;;5.67;3.80;;;;;;;13.08;82.11;94891.06;5035778;28;20506;-81
2023/10/29 04:50:04;;;;;;;5.50;3.90;;;;;;;13.13;82.74;94887.00;5036249;28;20488;-80
2023/10/29 04:52:30;;;;;;;5.83;4.53;;;;;;;13.23;82.53;94886.97;5035578;28;20450;-79
2023/10/29 04:54:57;;;;;;;11.30;4.90;;;;;;;13.33;83.48;94895.69;5035614;28;20940;-80
2023/10/29 04:57:25;;;;;;;8.57;3.70;;;;;;;13.38;83.09;94885.53;5035791;28;20439;-79
2023/10/29 04:59:53;;;;;;;8.73;4.30;;;;;;;13.42;82.22;94896.59;5035860;28;20452;-80
2023/10/29 05:02:22;;;;;;;4.60;4.10;;;;;;;13.45;80.85;94912.94;5035273;28;20451;-79
2023/10/29 05:04:49;;;;;;;7.50;4.33;;;;;;;13.47;80.85;94908.34;5035626;28;20917;-78
2023/10/29 05:07:15;;;;;;;6.00;4.07;;;;;;;13.30;80.75;94912.63;5035819;28;20442;-79
2023/10/29 05:09:42;;;;;;;8.30;4.00;;;;;;;13.35;81.56;94917.44;5035571;28;20467;-79
2023/10/29 05:12:09;;;;;;;5.70;4.37;;;;;;;13.48;82.04;94920.56;5035309;28;20446;-77
2023/10/29 05:14:37;;;;;;;9.13;5.10;;;;;;;13.77;83.31;94930.09;5035319;28;20828;-77
2023/10/29 05:17:05;;;;;;;7.33;4.83;;;;;;;14.39;82.80;94936.31;5034866;28;20456;-77
2023/10/29 05:19:32;;;;;;;6.77;5.00;;;;;;;15.23;78.14;94941.88;5035356;28;20450;-80
2023/10/29 05:21:59;;;;;;;4.77;4.27;;;;;;;16.10;76.56;94946.88;5035479;28;20771;-80
2023/10/29 05:24:26;;;;;;;5.87;3.83;;;;;;;16.90;70.49;94938.34;5035413;28;20439;-79
2023/10/29 05:26:53;;;;;;;8.07;4.10;;;;;;;17.65;67.33;94941.50;5034644;28;20443;-80
2023/10/29 05:29:19;;;;;;;5.00;3.97;;;;;;;18.95;71.04;94950.50;5035091;28;20451;-77
2023/10/29 05:31:47;;;;;;;8.87;3.87;;;;;;;19.68;61.51;94953.31;5034388;28;20492;-80
2023/10/29 05:34:14;;;;;;;6.03;4.03;;;;;;;20.11;57.97;94953.41;5034466;28;20456;-80
2023/10/29 05:36:42;;;;;;;12.63;4.70;;;;;;;20.45;56.25;94957.31;5034733;28;20452;-81
2023/10/29 05:39:09;;;;;;;15.43;4.33;;;;;;;20.81;53.60;94957.25;5033342;28;20511;-80
2023/10/29 05:41:36;;;;;;;12.40;3.60;;;;;;;21.07;53.50;94962.00;5034263;28;20447;-80
2023/10/29 05:44:03;;;;;;;4.90;3.87;;;;;;;21.17;52.71;94960.66;5034825;28;20473;-79
2023/10/29 05:46:30;;;;;;;6.60;2.90;;;;;;;21.43;52.76;94961.91;5034329;28;20442;-80
2023/10/29 05:48:58;;;;;;;2.60;2.40;;;;;;;21.65;51.50;94966.97;5015791;28;20817;-80
2023/10/29 05:51:25;;;;;;;6.40;2.77;;;;;;;21.84;50.50;94965.44;5033930;28;20495;-80
2023/10/29 05:53:52;;;;;;;3.70;2.90;;;;;;;21.96;50.34;94973.72;5034575;28;20467;-80
2023/10/29 05:56:19;;;;;;;7.60;3.10;;;;;;;22.02;50.34;94983.63;5034469;28;20447;-80
2023/10/29 05:58:45;;;;;;;4.43;2.50;;;;;;;21.97;51.25;94983.38;5033974;28;20506;-81
2023/10/29 06:01:12;;;;;;;5.27;2.70;;;;;;;22.07;50.24;94989.25;5015376;28;20920;-81
2023/10/29 06:03:39;;;;;;;7.00;3.40;;;;;;;22.07;49.92;94980.41;5034455;28;20457;-81
2023/10/29 06:06:07;;;;;;;4.70;2.90;;;;;;;22.15;50.69;94989.06;5034123;28;20450;-81
2023/10/29 06:08:34;;;;;;;3.00;2.33;;;;;;;22.15;49.09;94981.03;5033850;28;20954;-80
2023/10/29 06:11:01;;;;;;;3.73;2.67;;;;;;;22.15;49.50;94990.91;5034189;28;20497;-80
2023/10/29 06:13:28;;;;;;;3.87;2.60;;;;;;;22.16;49.63;94988.03;5033719;28;20454;-81
2023/10/29 06:15:55;;;;;;;5.03;2.60;;;;;;;22.28;49.48;94995.50;5033875;28;20446;-81
2023/10/29 06:18:21;;;;;;;6.13;2.53;;;;;;;22.18;50.01;94993.19;5034005;28;20446;-80
2023/10/29 06:20:48;;;;;;;2.57;2.37;;;;;;;21.98;50.17;95000.28;5033963;28;20466;-81
2023/10/29 06:23:16;;;;;;;5.93;2.93;;;;;;;21.90;51.16;94994.03;5033565;28;20455;-80
2023/10/29 06:25:43;;;;;;;4.50;2.83;;;;;;;21.82;51.19;94996.06;5033649;28;20455;-81
2023/10/29 06:28:10;;;;;;;4.73;3.13;;;;;;;21.79;50.58;95005.28;5032620;28;20487;-81
2023/10/29 06:30:37;;;;;;;5.17;3.40;;;;;;;21.72;51.33;95001.75;5033447;28;20498;-80
2023/10/29 06:33:04;;;;;;;6.07;3.77;;;;;;;21.12;51.64;95004.97;5033875;28;20445;-80
2023/10/29 06:35:31;;;;;;;6.43;4.50;;;;;;;20.96;52.95;95009.53;5032828;28;20446;-79
2023/10/29 06:37:58;;;;;;;5.50;3.40;;;;;;;20.49;53.37;95009.22;5033201;28;20428;-83
2023/10/29 06:40:26;;;;;;;5.27;4.20;;;;;;;19.80;55.80;95020.22;5032794;28;20442;-78
2023/10/29 06:42:53;;;;;;;8.27;4.10;;;;;;;19.13;58.43;95018.34;5034901;28;20495;-81
2023/10/29 06:45:19;;;;;;;8.20;3.77;;;;;;;19.05;59.16;95018.41;5029801;28;20442;-80
2023/10/29 06:47:46;;;;;;;4.67;3.70;;;;;;;18.54;60.20;95012.78;5033003;28;20500;-79
2023/10/29 06:50:13;;;;;;;5.50;4.30;;;;;;;18.45;61.42;95019.13;5033038;28;20454;-82
2023/10/29 06:52:40;;;;;;;6.47;4.30;;;;;;;18.34;64.94;95029.31;5033399;28;20439;-82
2023/10/29 06:55:09;;;;;;;6.63;4.50;;;;;;;18.43;66.80;95026.44;5033242;28;20446;-80
2023/10/29 06:57:37;;;;;;;7.10;4.87;;;;;;;18.59;64.29;95030.84;5032925;28;20865;-80
2023/10/29 07:00:07;;;;;;;10.53;5.50;;;;;;;18.41;63.82;95025.78;5033182;28;20994;-80
2023/10/29 07:02:34;;;;;;;5.43;3.83;;;;;;;18.54;69.45;95028.72;5032958;28;20917;-78
2023/10/29 07:05:01;;;;;;;7.53;4.20;;;;;;;18.56;67.79;95026.72;5033383;28;20452;-80
2023/10/29 07:07:29;;;;;;;10.70;4.30;;;;;;;18.61;65.04;95026.19;5032701;28;20452;-80
2023/10/29 07:09:56;;;;;;;8.37;4.50;;;;;;;18.61;63.77;95034.16;5032842;28;20441;-80
2023/10/29 07:12:24;;;;;;;4.80;4.30;;;;;;;18.56;64.41;95033.84;5032558;28;20474;-79
2023/10/29 07:14:52;;;;;;;7.50;3.97;;;;;;;18.53;65.48;95044.84;4981283;28;20469;-78
2023/10/29 07:17:19;;;;;;;8.83;4.60;;;;;;;18.57;62.88;95051.47;4997527;28;20460;-78
2023/10/29 07:19:47;;;;;;;6.47;4.50;;;;;;;18.49;62.44;95043.50;5032507;28;20856;-78
2023/10/29 07:22:14;;;;;;;4.70;4.07;;;;;;;18.23;62.96;95043.84;5025028;28;20491;-79
2023/10/29 07:24:41;;;;;;;8.67;4.20;;;;;;;18.23;64.87;95043.84;5014215;28;20969;-78
2023/10/29 07:27:08;;;;;;;17.20;4.47;;;;;;;18.24;64.66;95045.50;5024161;28;20523;-79
2023/10/29 07:29:35;;;;;;;9.63;4.63;;;;;;;18.29;65.54;95043.13;5020493;28;20516;-75
2023/10/29 07:32:03;;;;;;;10.80;5.17;;;;;;;18.29;66.59;95043.13;5025875;28;20500;-79
2023/10/29 07:34:30;;;;;;;7.03;4.13;;;;;;;18.30;66.24;95038.66;5029187;28;20459;-79
2023/10/29 07:36:57;;;;;;;4.50;3.77;;;;;;;18.27;65.65;95034.50;5027774;28;20448;-79
2023/10/29 07:39:24;;;;;;;6.33;4.30;;;;;;;18.40;65.57;95034.75;5032326;28;20447;-79
2023/10/29 07:41:51;;;;;;;7.80;5.00;;;;;;;18.34;64.01;95039.94;5035755;28;20450;-79
2023/10/29 07:44:17;;;;;;;10.00;5.10;;;;;;;18.18;64.29;95041.66;5036050;28;20475;-79
2023/10/29 07:46:44;;;;;;;10.33;4.73;;;;;;;18.19;64.04;95045.97;5035890;28;20441;-79
2023/10/29 07:49:12;;;;;;;8.50;4.40;;;;;;;18.31;66.16;95046.44;5036152;28;20787;-79
2023/10/29 07:51:39;;;;;;;8.63;5.53;;;;;;;18.39;65.60;95049.06;5035647;28;20496;-78
2023/10/29 07:54:06;;;;;;;9.00;5.53;;;;;;;18.40;66.40;95042.75;5035813;28;20445;-78
2023/10/29 07:56:33;;;;;;;7.40;4.63;;;;;;;18.25;65.16;95041.84;5035813;28;20504;-80
2023/10/29 07:59:00;;;;;;;8.73;4.53;;;;;;;18.02;66.08;95044.41;5035585;28;20450;-78
2023/10/29 08:01:26;;;;;;;8.37;4.20;;;;;;;18.03;65.98;95043.41;5035568;28;20448;-79
2023/10/29 08:03:55;;;;;;;7.50;4.53;;;;;;;17.97;66.40;95032.66;5017137;28;20445;-79
2023/10/29 08:06:24;;;;;;;5.90;3.90;;;;;;;18.04;66.76;95045.06;5035652;28;20448;-79
2023/10/29 08:08:50;;;;;;;12.63;4.70;;;;;;;18.00;66.37;95048.25;5035820;28;20487;-79
2023/10/29 08:11:19;;;;;;;6.27;3.60;;;;;;;17.95;63.50;95041.63;5035618;28;20491;-79
2023/10/29 08:13:46;;;;;;;5.67;3.60;;;;;;;18.12;64.04;95049.50;5035871;28;20862;-79
2023/10/29 08:16:13;;;;;;;9.73;4.40;;;;;;;18.23;65.24;95047.31;5035530;28;20810;-79
2023/10/29 08:18:39;;;;;;;6.20;3.40;;;;;;;18.22;64.91;95052.81;5035344;28;20457;-78
2023/10/29 08:21:06;;;;;;;8.10;4.10;;;;;;;18.15;65.19;95050.00;5033431;28;20440;-79
2023/10/29 08:23:35;;;;;;;5.90;4.50;;;;;;;18.33;64.18;95056.91;5035449;28;20455;-80
2023/10/29 08:26:02;;;;;;;6.00;3.97;;;;;;;18.39;64.58;95054.38;5035460;28;20530;-79
2023/10/29 08:28:29;;;;;;;8.30;4.47;;;;;;;18.57;64.25;95062.09;5015546;28;20473;-79
2023/10/29 08:30:56;;;;;;;7.67;4.60;;;;;;;18.70;63.57;95064.19;5035184;28;20864;-79
2023/10/29 08:33:23;;;;;;;9.40;5.10;;;;;;;18.94;64.71;95066.69;5035077;28;20448;-78
2023/10/29 08:35:50;;;;;;;17.80;6.53;;;;;;;19.24;63.17;95066.81;5036028;28;20450;-77
2023/10/29 08:38:17;;;;;;;11.40;6.83;;;;;;;19.54;62.82;95060.59;5035461;28;20448;-78
2023/10/29 08:40:45;;;;;;;14.20;7.03;;;;;;;19.83;60.82;95058.97;5036020;28;20457;-79
2023/10/29 08:43:12;;;;;;;16.70;6.30;;;;;;;19.93;59.20;95059.53;5001057;28;20451;-79
2023/10/29 08:45:41;;;;;;;10.90;5.63;;;;;;;20.06;58.37;95060.56;5034884;28;20482;-79
2023/10/29 08:48:08;;;;;;;10.03;5.90;;;;;;;20.04;56.94;95065.25;5033116;28;20453;-79
2023/10/29 08:50:35;;;;;;;14.10;5.60;;;;;;;19.87;56.13;95071.75;5034347;28;20445;-80
2023/10/29 08:53:03;;;;;;;9.60;5.23;;;;;;;20.05;57.37;95071.38;5034718;28;20501;-79
2023/10/29 08:55:30;;;;;;;8.20;5.00;;;;;;;20.27;59.15;95054.47;5034972;28;20473;-79
2023/10/29 08:57:58;;;;;;;8.67;4.30;;;;;;;20.48;57.47;95060.91;5034754;28;20446;-79
2023/10/29 09:00:25;;;;;;;7.83;4.40;;;;;;;20.47;54.62;95064.56;5034820;28;20440;-79
2023/10/29 09:02:52;;;;;;;7.73;4.20;;;;;;;20.38;54.31;95064.66;5035421;28;20487;-79
2023/10/29 09:05:19;;;;;;;7.23;5.03;;;;;;;20.55;54.40;95065.31;5035417;28;20896;-79
2023/10/29 09:07:46;;;;;;;6.60;3.87;;;;;;;20.57;53.78;95070.47;5035207;28;20926;-79
2023/10/29 09:10:13;;;;;;;6.80;3.70;;;;;;;20.69;57.25;95064.44;5016574;28;20442;-79
2023/10/29 09:12:40;;;;;;;4.50;4.10;;;;;;;20.73;53.30;95054.22;5034996;28;20985;-78
2023/10/29 09:15:10;;;;;;;10.00;4.50;;;;;;;20.82;53.96;95054.97;5035504;28;20446;-79
2023/10/29 09:17:37;;;;;;;9.20;3.67;;;;;;;20.81;52.83;95054.09;5035434;28;20453;-80
2023/10/29 09:20:05;;;;;;;4.57;3.57;;;;;;;20.93;52.42;95047.28;5035399;28;21250;-80
2023/10/29 09:22:32;;;;;;;7.37;4.70;;;;;;;20.92;52.14;95052.78;5035305;28;20442;-80
2023/10/29 09:24:59;;;;;;;7.80;4.47;;;;;;;20.97;53.03;95053.03;5035304;28;20448;-80
2023/10/29 09:27:26;;;;;;;13.20;5.23;;;;;;;20.53;53.07;95055.81;5034458;28;20898;-80
2023/10/29 09:29:53;;;;;;;5.90;4.40;;;;;;;20.70;53.54;95049.28;5034245;28;20452;-81
2023/10/29 09:32:23;;;;;;;8.63;4.80;;;;;;;20.65;53.22;95054.34;5034424;28;20485;-79
2023/10/29 09:34:51;;;;;;;9.23;4.63;;;;;;;20.70;53.29;95046.59;5034596;28;20448;-80
2023/10/29 09:37:17;;;;;;;10.70;3.90;;;;;;;20.78;52.37;95048.31;5034121;28;20490;-80
2023/10/29 09:39:44;;;;;;;10.20;4.40;;;;;;;20.86;52.31;95048.22;5033849;28;20443;-79
2023/10/29 09:42:12;;;;;;;8.37;3.80;;;;;;;20.85;52.04;95049.25;5033897;28;20542;-80
2023/10/29 09:44:42;;;;;;;5.47;3.93;;;;;;;20.88;51.49;95048.84;5034193;28;20445;-81
2023/10/29 09:47:14;;;;;;;8.43;3.80;;;;;;;20.99;51.01;95043.00;5034156;28;20434;-81
2023/10/29 09:49:43;;;;;;;7.67;3.20;;;;;;;21.08;51.67;95033.03;5033621;28;20486;-80
2023/10/29 09:52:11;;;;;;;5.07;3.33;;;;;;;21.21;51.25;95034.00;5033725;28;20482;-80
2023/10/29 09:54:39;;;;;;;7.40;3.07;;;;;;;21.22;50.63;95027.63;5033523;28;21257;-80
2023/10/29 09:57:07;;;;;;;2.87;2.67;;;;;;;21.12;50.79;95024.47;5033783;28;20502;-80
2023/10/29 09:59:34;;;;;;;4.87;2.93;;;;;;;21.01;50.79;95028.47;5033668;28;20454;-80
2023/10/29 10:02:01;;;;;;;4.53;2.87;;;;;;;21.10;50.82;95021.13;5033499;28;20456;-80
2023/10/29 10:04:28;;;;;;;10.40;2.87;;;;;;;21.23;51.54;95012.44;5032725;28;20450;-80
2023/10/29 10:06:59;;;;;;;4.27;3.33;;;;;;;21.38;50.75;95018.53;5033907;28;20876;-81
2023/10/29 10:09:26;;;;;;;4.77;3.00;;;;;;;21.43;51.99;95005.47;5033305;28;20479;-81
2023/10/29 10:12:06;;;;;;;6.23;3.40;;;;;;;21.33;50.29;95008.44;5033112;28;20495;-80
2023/10/29 10:14:33;;;;;;;5.20;3.47;;;;;;;21.27;48.97;95000.38;5030901;28;20450;-81
2023/10/29 10:17:09;;;;;;;7.07;3.77;;;;;;;21.37;50.41;95008.88;5033468;28;20443;-80
2023/10/29 10:19:37;;;;;;;3.83;3.07;;;;;;;21.50;49.59;95001.00;5033074;28;20879;-81
2023/10/29 10:22:05;;;;;;;8.80;3.80;;;;;;;21.55;49.00;94995.88;5033490;28;20501;-81
2023/10/29 10:24:40;;;;;;;11.20;3.00;;;;;;;21.68;49.57;94987.13;5033234;28;20439;-81
2023/10/29 10:27:07;;;;;;;6.30;3.37;;;;;;;21.77;49.18;94990.47;5033009;28;20459;-82
2023/10/29 10:29:34;;;;;;;3.73;2.93;;;;;;;21.86;48.08;94989.28;5033149;28;20443;-78
2023/10/29 10:32:02;;;;;;;9.70;2.90;;;;;;;21.86;48.70;94984.78;5033019;28;20610;-78
2023/10/29 10:34:31;;;;;;;5.70;2.80;;;;;;;22.04;54.09;94981.63;5033155;28;20467;-78
2023/10/29 10:37:00;;;;;;;4.13;2.20;;;;;;;22.06;51.20;94968.88;5032531;28;20476;-79
2023/10/29 10:39:32;;;;;;;7.40;3.00;;;;;;;22.12;48.35;94977.94;5032687;28;20450;-79
2023/10/29 10:42:00;;;;;;;4.67;2.70;;;;;;;22.15;47.80;94973.03;5030816;28;20473;-79
2023/10/29 10:44:29;;;;;;;7.40;2.60;;;;;;;22.10;46.37;94975.47;5032767;28;20453;-79
2023/10/29 10:46:58;;;;;;;6.07;3.17;;;;;;;22.06;47.21;94973.41;5032717;28;20489;-79
2023/10/29 10:49:26;;;;;;;3.07;2.53;;;;;;;22.07;46.02;94970.53;5032321;28;20454;-78
2023/10/29 10:51:54;;;;;;;5.30;2.30;;;;;;;22.06;45.57;94971.56;5013743;28;20483;-79
2023/10/29 10:54:22;;;;;;;5.20;2.73;;;;;;;22.00;45.77;94966.16;5033063;28;20451;-79
2023/10/29 10:56:52;;;;;;;4.00;2.40;;;;;;;21.90;46.71;94972.66;5032465;28;20437;-79
2023/10/29 10:59:19;;;;;;;7.20;2.90;;;;;;;22.00;47.15;94969.66;5032503;28;20821;-79
2023/10/29 11:01:47;;;;;;;4.27;3.40;;;;;;;22.02;46.00;94967.59;5032351;28;20451;-79
2023/10/29 11:04:15;;;;;;;3.50;2.23;;;;;;;22.10;44.73;94969.31;5032491;28;20791;-80
2023/10/29 11:06:42;;;;;;;2.93;2.63;;;;;;;22.06;44.94;94968.88;5032598;28;20517;-79
2023/10/29 11:09:12;;;;;;;5.17;2.60;;;;;;;22.13;43.14;94969.72;5032353;28;20737;-79
2023/10/29 11:11:44;;;;;;;4.77;2.37;;;;;;;22.03;42.38;94961.22;5032002;28;20453;-79
2023/10/29 11:14:14;;;;;;;2.67;2.10;;;;;;;22.09;43.29;94968.47;5031901;28;20453;-78
2023/10/29 11:16:49;;;;;;;5.10;2.30;;;;;;;22.15;43.55;94965.00;5032148;28;20444;-78
2023/10/29 11:19:43;;;;;;;2.33;1.90;;;;;;;22.13;42.60;94968.91;5032495;28;20454;-79
2023/10/29 11:22:17;;;;;;;2.53;1.53;;;;;;;22.13;42.33;94967.06;5032171;28;20459;-77
2023/10/29 11:24:44;;;;;;;5.13;2.13;;;;;;;22.16;42.95;94963.97;5032044;28;20484;-79
2023/10/29 11:27:35;;;;;;;3.00;2.10;;;;;;;22.23;43.41;94954.13;5031872;28;20445;-79
2023/10/29 11:30:13;;;;;;;14.70;2.60;;;;;;;22.31;42.72;94953.16;5031696;28;20818;-78
2023/10/29 11:32:41;;;;;;;4.87;2.13;;;;;;;22.23;40.99;94951.47;5032279;28;20584;-80